Montevideo, MN (56265)

10:28 PM CST op 04 december 2016 (GMT -0600)
Near Chinhinta Park | | Change Station

Hoogte 1024 ft 44.94 °N, 95.72 °W | Updated 2 seconds ago

Clear
Helder
29.8 °F
Voelt als 30 °F
N
0.0
Wind Variabel Wind van ZZO
Gusts 0.0 mijl/u

Vandaag
Hoog -- | Laag -- °F
--% Kans op neerslag
Gisteren
Hoog -- | Laag -- °F
Precip. -- inches
Druk 29.76 inches
Zicht 10.0 mijlen
Wolken Helder
Gevoelstemperatuur 30 °F
Dauwpunt 28 °F
Vochtigheid 92%
Neerslag 0.00 inches
Dikte sneeuw Niet beschikbaar.
7:44 AM 4:41 PM
Wassende halvemaan, 28% visible
METAR KMVE 050412Z AUTO 24004KT 10SM CLR M02/M03 A2976 RMK AO2
Druk 29.76 inches
Zicht 10.0 mijlen
Wolken Helder
Gevoelstemperatuur 30 °F
Dauwpunt 28 °F
Vochtigheid 92%
Neerslag 0.00 inches
Dikte sneeuw Niet beschikbaar.
7:44 AM 4:41 PM
Wassende halvemaan, 28% visible
METAR KMVE 050412Z AUTO 24004KT 10SM CLR M02/M03 A2976 RMK AO2

10-Day Weather Forecast

Almanac

Astronomie

Dec. 04, 2016 Opkomst Ondergang
Werkelijke tijd
Burgerlijke schemering
Nautische schemering
Astronomische schemering
Maan
Golflengte van het zichtbare licht
Daglengte
Tomorrow will be .
, % of the Moon is Illuminated

Extremen vandaag

State Highs State Lows

Community

WunderPhotos

Upload Photos

1,955,759 foto’s ge-upload!

WunderBlog® & News

Nearby

Luchtkwaliteit

  Luchtkwaliteit LK-index Verontreinigende stof
Not available.

Dikte sneeuw

Station Depth Geometrische hoogte

Aardbevingen

Stad Distance Mag. Time & Date
Minimum magnitude displayed is 2.5.

Watertemperatuur langs de kust

Plaats Temperatuur

Stations

Nabije weerstations

Locatie station Temp. Gevoelstemperatuur Dauwpunt Vochtigheid Wind Precip. Hoogte Geactualiseerd Type
                   

Watches & Warnings

There are currently no watches in effect.